createdAt,value
2022-10-13T00:01:28.586Z,4.63
2022-10-13T00:03:57.301Z,4.47
2022-10-13T00:06:26.626Z,4.27
2022-10-13T00:08:56.626Z,4.23
2022-10-13T00:11:27.944Z,4.80
2022-10-13T00:13:58.139Z,4.50
2022-10-13T00:16:27.464Z,4.13
2022-10-13T00:18:56.609Z,4.23
2022-10-13T00:21:27.905Z,4.10
2022-10-13T00:23:56.408Z,4.73
2022-10-13T00:26:26.052Z,4.17
2022-10-13T00:28:54.809Z,4.50
2022-10-13T00:31:25.305Z,4.70
2022-10-13T00:33:53.059Z,4.23
2022-10-13T00:36:23.451Z,4.37
2022-10-13T00:38:51.450Z,4.40
2022-10-13T00:41:19.683Z,5.43
2022-10-13T00:43:57.255Z,4.63
2022-10-13T00:46:28.206Z,5.50
2022-10-13T00:48:58.842Z,4.27
2022-10-13T00:51:33.490Z,4.37
2022-10-13T00:54:05.582Z,4.20
2022-10-13T00:56:35.527Z,4.77
2022-10-13T00:59:04.421Z,4.43
2022-10-13T01:01:32.634Z,4.50
2022-10-13T01:04:00.219Z,4.07
2022-10-13T01:06:29.361Z,4.37
2022-10-13T01:08:56.648Z,4.60
2022-10-13T01:11:54.340Z,4.70
2022-10-13T01:14:34.143Z,4.73
2022-10-13T01:17:16.271Z,4.73
2022-10-13T01:20:22.864Z,4.70
2022-10-13T01:23:18.542Z,5.00
2022-10-13T01:26:18.542Z,4.20
2022-10-13T01:29:11.494Z,4.53
2022-10-13T01:31:49.171Z,4.80
2022-10-13T01:34:23.238Z,4.00
2022-10-13T01:37:03.218Z,4.20
2022-10-13T01:39:40.466Z,4.60
2022-10-13T01:42:16.768Z,4.83
2022-10-13T01:44:51.541Z,4.97
2022-10-13T01:47:23.346Z,4.83
2022-10-13T01:49:53.163Z,5.07
2022-10-13T01:52:26.193Z,4.87
2022-10-13T01:54:54.985Z,4.20
2022-10-13T01:57:34.304Z,4.60
2022-10-13T02:00:07.584Z,4.80
2022-10-13T02:02:46.717Z,4.40
2022-10-13T02:05:26.411Z,5.43
2022-10-13T02:08:05.083Z,4.97
2022-10-13T02:10:40.261Z,5.37
2022-10-13T02:13:14.067Z,5.60
2022-10-13T02:15:48.738Z,5.10
2022-10-13T02:18:23.594Z,5.77
2022-10-13T02:20:52.469Z,5.40
2022-10-13T02:23:20.206Z,5.87
2022-10-13T02:25:50.162Z,5.13
2022-10-13T02:28:18.887Z,5.97
2022-10-13T02:30:47.437Z,5.40
2022-10-13T02:33:15.235Z,4.87
2022-10-13T02:35:44.576Z,5.47
2022-10-13T02:38:11.933Z,5.97
2022-10-13T02:40:39.485Z,5.60
2022-10-13T02:43:09.739Z,6.03
2022-10-13T02:45:36.982Z,5.87
2022-10-13T02:48:04.624Z,6.30
2022-10-13T02:50:31.941Z,5.60
2022-10-13T02:53:00.582Z,6.10
2022-10-13T02:55:27.866Z,5.93
2022-10-13T02:57:55.171Z,5.77
2022-10-13T03:00:23.140Z,6.27
2022-10-13T03:02:50.540Z,6.43
2022-10-13T03:05:18.018Z,6.80
2022-10-13T03:07:45.241Z,5.77
2022-10-13T03:10:13.943Z,6.43
2022-10-13T03:12:41.162Z,6.70
2022-10-13T03:15:09.767Z,6.60
2022-10-13T03:17:37.050Z,6.60
2022-10-13T03:20:05.857Z,6.87
2022-10-13T03:22:33.685Z,6.63
2022-10-13T03:25:00.922Z,6.57
2022-10-13T03:27:29.827Z,8.03
2022-10-13T03:29:57.181Z,6.77
2022-10-13T03:32:24.489Z,7.33
2022-10-13T03:34:52.212Z,7.17
2022-10-13T03:37:19.429Z,7.27
2022-10-13T03:39:46.723Z,7.20
2022-10-13T03:42:13.975Z,6.60
2022-10-13T03:44:42.595Z,6.07
2022-10-13T03:47:09.920Z,6.57
2022-10-13T03:49:39.020Z,6.73
2022-10-13T03:52:06.556Z,7.37
2022-10-13T03:54:33.845Z,7.10
2022-10-13T03:57:01.121Z,7.30
2022-10-13T03:59:34.157Z,6.80
2022-10-13T04:02:05.159Z,6.93
2022-10-13T04:04:32.506Z,6.20
2022-10-13T04:06:59.789Z,6.27
2022-10-13T04:09:27.391Z,7.23
2022-10-13T04:11:55.273Z,6.53
2022-10-13T04:14:22.534Z,6.60
2022-10-13T04:16:49.838Z,6.90
2022-10-13T04:19:18.484Z,6.10
2022-10-13T04:21:45.820Z,7.57
2022-10-13T04:24:13.786Z,7.70
2022-10-13T04:26:41.361Z,7.60
2022-10-13T04:29:13.247Z,7.73
2022-10-13T04:31:43.800Z,7.30
2022-10-13T04:34:12.125Z,7.80
2022-10-13T04:36:40.829Z,7.07
2022-10-13T04:39:08.041Z,7.97
2022-10-13T04:41:35.656Z,8.37
2022-10-13T04:44:03.061Z,8.07
2022-10-13T04:46:30.843Z,8.00
2022-10-13T04:48:58.398Z,9.87
2022-10-13T04:51:26.737Z,8.83
2022-10-13T04:54:05.611Z,9.27
2022-10-13T04:56:33.106Z,9.73
2022-10-13T04:59:00.624Z,9.47
2022-10-13T05:01:27.952Z,9.00
2022-10-13T05:03:57.684Z,9.53
2022-10-13T05:06:28.558Z,10.47
2022-10-13T05:08:56.533Z,9.30
2022-10-13T05:11:27.550Z,10.90
2022-10-13T05:13:56.033Z,9.83
2022-10-13T05:16:24.684Z,8.97
2022-10-13T05:18:55.157Z,10.33
2022-10-13T05:21:25.940Z,9.37
2022-10-13T05:23:55.572Z,10.70
2022-10-13T05:26:28.911Z,9.20
2022-10-13T05:28:56.594Z,10.40
2022-10-13T05:31:26.626Z,10.40
2022-10-13T05:33:54.163Z,11.00
2022-10-13T05:36:25.711Z,12.03
2022-10-13T05:38:56.498Z,11.53
2022-10-13T05:41:26.971Z,11.83
2022-10-13T05:43:58.988Z,12.90
2022-10-13T05:46:26.555Z,12.83
2022-10-13T05:48:54.463Z,13.43
2022-10-13T05:51:29.539Z,12.57
2022-10-13T05:54:05.911Z,11.40
2022-10-13T05:56:41.177Z,13.90
2022-10-13T05:59:13.970Z,13.27
2022-10-13T06:01:43.864Z,13.07
2022-10-13T06:04:19.927Z,13.90
2022-10-13T06:06:49.688Z,13.70
2022-10-13T06:09:17.984Z,13.37
2022-10-13T06:11:46.704Z,14.10
2022-10-13T06:14:14.019Z,14.10
2022-10-13T06:16:42.187Z,15.27
2022-10-13T06:19:09.596Z,15.60
2022-10-13T06:21:36.838Z,15.07
2022-10-13T06:24:04.936Z,15.20
2022-10-13T06:26:32.190Z,14.33
2022-10-13T06:29:00.913Z,13.83
2022-10-13T06:31:28.213Z,14.90
2022-10-13T06:33:55.626Z,14.83
2022-10-13T06:36:22.997Z,14.90
2022-10-13T06:38:50.712Z,15.57
2022-10-13T06:41:18.273Z,14.57
2022-10-13T06:43:45.597Z,14.90
2022-10-13T06:46:14.268Z,15.70
2022-10-13T06:48:41.557Z,13.43
2022-10-13T06:51:12.798Z,15.47
2022-10-13T06:53:40.381Z,15.07
2022-10-13T06:56:08.960Z,14.33
2022-10-13T06:58:37.568Z,14.97
2022-10-13T07:01:06.447Z,13.43
2022-10-13T07:03:36.545Z,14.17
2022-10-13T07:06:06.014Z,13.17
2022-10-13T07:08:34.208Z,14.53
2022-10-13T07:11:11.622Z,14.37
2022-10-13T07:13:46.278Z,15.23
2022-10-13T07:16:15.328Z,16.03
2022-10-13T07:18:44.176Z,15.03
2022-10-13T07:21:11.392Z,16.17
2022-10-13T07:23:38.837Z,15.80
2022-10-13T07:26:08.379Z,15.00
2022-10-13T07:28:35.775Z,13.47
2022-10-13T07:31:10.999Z,15.17
2022-10-13T07:33:39.312Z,15.30
2022-10-13T07:36:09.808Z,17.17
2022-10-13T07:38:38.221Z,15.17
2022-10-13T07:41:08.428Z,14.80
2022-10-13T07:43:36.014Z,15.47
2022-10-13T07:46:05.073Z,16.33
2022-10-13T07:48:32.934Z,14.13
2022-10-13T07:51:03.845Z,15.77
2022-10-13T07:53:32.865Z,15.07
2022-10-13T07:56:01.556Z,15.00
2022-10-13T07:58:28.976Z,15.77
2022-10-13T08:00:57.185Z,15.60
2022-10-13T08:03:25.624Z,14.60
2022-10-13T08:05:53.967Z,16.17
2022-10-13T08:08:24.250Z,15.20
2022-10-13T08:10:55.850Z,14.67
2022-10-13T08:13:23.081Z,16.17
2022-10-13T08:15:50.435Z,15.57
2022-10-13T08:18:17.831Z,15.87
2022-10-13T08:20:46.138Z,15.13
2022-10-13T08:23:13.876Z,14.20
2022-10-13T08:25:43.810Z,13.57
2022-10-13T08:28:19.662Z,14.63
2022-10-13T08:30:47.936Z,13.87
2022-10-13T08:33:15.243Z,14.30
2022-10-13T08:35:43.510Z,13.90
2022-10-13T08:38:10.904Z,13.43
2022-10-13T08:40:39.308Z,12.93
2022-10-13T08:43:08.474Z,13.97
2022-10-13T08:45:42.193Z,14.63
2022-10-13T08:48:16.389Z,14.13
2022-10-13T08:50:47.800Z,12.90
2022-10-13T08:53:25.921Z,14.37
2022-10-13T08:55:59.010Z,13.67
2022-10-13T08:58:30.806Z,13.40
2022-10-13T09:01:12.378Z,13.97
2022-10-13T09:03:51.118Z,14.13
2022-10-13T09:06:28.437Z,13.50
2022-10-13T09:09:00.150Z,13.53
2022-10-13T09:11:30.174Z,12.90
2022-10-13T09:14:00.151Z,15.20
2022-10-13T09:16:35.100Z,13.20
2022-10-13T09:19:23.698Z,14.17
2022-10-13T09:21:54.360Z,14.33
2022-10-13T09:24:24.658Z,14.10
2022-10-13T09:27:05.853Z,13.43
2022-10-13T09:29:33.181Z,14.70
2022-10-13T09:32:21.107Z,14.97
2022-10-13T09:34:50.298Z,12.63
2022-10-13T09:37:22.777Z,12.53
2022-10-13T09:40:02.356Z,13.73
2022-10-13T09:42:31.954Z,14.10
2022-10-13T09:45:12.128Z,12.70
2022-10-13T09:47:48.259Z,12.27
2022-10-13T09:50:19.620Z,13.60
2022-10-13T09:52:48.539Z,13.70
2022-10-13T09:55:33.068Z,13.40
2022-10-13T09:58:10.612Z,13.43
2022-10-13T10:00:39.575Z,13.87
2022-10-13T10:03:20.113Z,13.30
2022-10-13T10:05:52.097Z,11.83
2022-10-13T10:08:33.522Z,11.73
2022-10-13T10:11:13.580Z,12.10
2022-10-13T10:13:40.870Z,13.10
2022-10-13T10:16:18.159Z,10.90
2022-10-13T10:18:58.471Z,12.90
2022-10-13T10:21:38.026Z,12.33
2022-10-13T10:24:27.014Z,13.10
2022-10-13T10:27:01.569Z,12.10
2022-10-13T10:29:46.760Z,11.73
2022-10-13T10:32:28.814Z,12.50
2022-10-13T10:35:10.182Z,13.90
2022-10-13T10:37:57.484Z,12.30
2022-10-13T10:40:38.902Z,13.07
2022-10-13T10:43:50.083Z,13.00
2022-10-13T10:46:23.129Z,12.60
2022-10-13T10:48:57.334Z,12.93
2022-10-13T10:51:32.051Z,12.73
2022-10-13T10:54:17.011Z,11.03
2022-10-13T10:56:53.114Z,12.30
2022-10-13T10:59:36.326Z,23.80
2022-10-13T11:02:27.925Z,11.73
2022-10-13T11:04:56.425Z,10.03
2022-10-13T11:07:58.805Z,11.43
2022-10-13T11:10:27.871Z,11.20
2022-10-13T11:13:20.914Z,12.07
2022-10-13T11:15:48.484Z,10.60
2022-10-13T11:19:09.843Z,11.17
2022-10-13T11:22:13.576Z,8.63
2022-10-13T11:25:19.273Z,9.57
2022-10-13T11:27:46.662Z,8.53
2022-10-13T11:30:42.631Z,9.53
2022-10-13T11:33:51.318Z,11.67
2022-10-13T11:36:45.127Z,10.33
2022-10-13T11:40:01.078Z,10.20
2022-10-13T11:43:26.532Z,10.33
2022-10-13T11:46:23.113Z,10.77
2022-10-13T11:49:35.713Z,11.60
2022-10-13T11:52:38.297Z,9.73
2022-10-13T11:58:14.351Z,11.50
2022-10-13T12:00:51.677Z,9.13
2022-10-13T12:03:26.616Z,8.87
2022-10-13T12:05:59.324Z,9.23
2022-10-13T12:08:30.574Z,8.80
2022-10-13T12:11:03.078Z,8.50
2022-10-13T12:13:33.857Z,7.77
2022-10-13T12:16:06.258Z,6.67
2022-10-13T12:18:38.122Z,6.10
2022-10-13T12:21:12.631Z,6.50
2022-10-13T12:23:40.833Z,5.43
2022-10-13T12:26:16.610Z,5.40
2022-10-13T12:28:51.278Z,5.90
2022-10-13T12:31:23.889Z,5.83
2022-10-13T12:33:56.902Z,5.80
2022-10-13T12:36:30.690Z,6.13
2022-10-13T12:39:03.799Z,6.37
2022-10-13T12:41:40.619Z,7.70
2022-10-13T12:44:13.905Z,7.37
2022-10-13T12:46:44.092Z,6.90
2022-10-13T12:52:14.340Z,8.10
2022-10-13T12:54:50.578Z,7.77
2022-10-13T12:57:27.098Z,8.47
2022-10-13T12:59:58.475Z,7.40
2022-10-13T13:02:29.750Z,7.17
2022-10-13T13:04:57.131Z,7.30
2022-10-13T13:07:34.170Z,8.40
2022-10-13T13:10:20.835Z,6.93
2022-10-13T13:12:51.948Z,8.47
2022-10-13T13:15:32.978Z,7.47
2022-10-13T13:18:36.621Z,8.13
2022-10-13T13:21:06.794Z,7.97
2022-10-13T13:23:35.423Z,7.37
2022-10-13T13:26:12.308Z,7.10
2022-10-13T13:28:46.915Z,8.23
2022-10-13T13:31:16.151Z,7.30
2022-10-13T13:33:43.553Z,8.63
2022-10-13T13:36:17.243Z,8.33
2022-10-13T13:38:44.642Z,8.63
2022-10-13T13:41:13.007Z,7.57
2022-10-13T13:43:42.281Z,8.23
2022-10-13T13:46:17.171Z,7.80
2022-10-13T13:48:44.500Z,7.43
2022-10-13T13:51:11.809Z,8.20
2022-10-13T13:53:39.357Z,8.03
2022-10-13T13:56:11.778Z,10.30
2022-10-13T13:58:39.210Z,7.57
2022-10-13T14:01:08.401Z,6.83
2022-10-13T14:03:35.739Z,7.70
2022-10-13T14:06:02.978Z,8.23
2022-10-13T14:08:31.774Z,7.57
2022-10-13T14:10:59.551Z,7.73
2022-10-13T14:13:27.160Z,9.13
2022-10-13T14:15:58.219Z,6.83
2022-10-13T14:18:27.918Z,7.80
2022-10-13T14:20:55.340Z,7.23
2022-10-13T14:23:25.657Z,7.07
2022-10-13T14:25:52.935Z,8.23
2022-10-13T14:28:20.517Z,8.47
2022-10-13T14:30:48.141Z,7.20
2022-10-13T14:33:19.314Z,6.43
2022-10-13T14:35:47.961Z,7.37
2022-10-13T14:38:15.287Z,6.63
2022-10-13T14:40:42.657Z,7.00
2022-10-13T14:43:09.930Z,6.23
2022-10-13T14:45:37.210Z,6.10
2022-10-13T14:48:05.400Z,7.57
2022-10-13T14:50:38.145Z,7.93
2022-10-13T14:53:09.624Z,6.80
2022-10-13T14:55:37.227Z,6.67
2022-10-13T14:58:04.554Z,5.70
2022-10-13T15:00:31.834Z,7.23
2022-10-13T15:02:59.084Z,6.87
2022-10-13T15:05:26.539Z,8.20
2022-10-13T15:07:53.856Z,6.70
2022-10-13T15:10:23.044Z,6.90
2022-10-13T15:12:50.602Z,7.30
2022-10-13T15:15:18.073Z,7.50
2022-10-13T15:17:45.434Z,7.60
2022-10-13T15:20:12.817Z,7.10
2022-10-13T15:22:40.128Z,7.67
2022-10-13T15:25:10.378Z,7.00
2022-10-13T15:27:42.038Z,7.07
2022-10-13T15:30:10.651Z,6.70
2022-10-13T15:32:38.475Z,7.40
2022-10-13T15:35:07.013Z,7.87
2022-10-13T15:37:34.297Z,7.17
2022-10-13T15:40:01.563Z,49.10
2022-10-13T15:42:29.106Z,8.97
2022-10-13T15:45:09.188Z,7.20
2022-10-13T15:47:37.929Z,14.60
2022-10-13T15:50:06.109Z,7.30
2022-10-13T15:52:38.796Z,6.80
2022-10-13T15:55:06.815Z,6.90
2022-10-13T15:57:34.326Z,7.00
2022-10-13T16:00:04.113Z,7.03
2022-10-13T16:02:31.390Z,7.03
2022-10-13T16:05:04.660Z,8.20
2022-10-13T16:07:32.342Z,6.87
2022-10-13T16:09:59.787Z,7.17
2022-10-13T16:12:29.100Z,6.67
2022-10-13T16:14:56.613Z,7.40
2022-10-13T16:17:25.391Z,8.43
2022-10-13T16:19:53.433Z,8.03
2022-10-13T16:22:21.091Z,7.23
2022-10-13T16:24:48.593Z,7.73
2022-10-13T16:27:15.854Z,7.50
2022-10-13T16:29:43.210Z,7.83
2022-10-13T16:32:10.698Z,7.70
2022-10-13T16:34:39.406Z,7.53
2022-10-13T16:39:58.592Z,8.33
2022-10-13T16:42:25.917Z,9.53
2022-10-13T16:44:53.227Z,10.00
2022-10-13T16:47:21.103Z,10.93
2022-10-13T16:49:50.079Z,8.23
2022-10-13T16:52:17.378Z,9.63
2022-10-13T16:54:46.338Z,10.87
2022-10-13T16:57:13.729Z,11.73
2022-10-13T16:59:41.258Z,9.93
2022-10-13T17:02:14.472Z,11.13
2022-10-13T17:04:41.810Z,11.70
2022-10-13T17:07:10.501Z,12.27
2022-10-13T17:09:37.946Z,12.23
2022-10-13T17:12:06.137Z,10.43
2022-10-13T17:14:33.658Z,12.97
2022-10-13T17:17:00.945Z,12.03
2022-10-13T17:19:28.714Z,12.30
2022-10-13T17:21:55.964Z,13.37
2022-10-13T17:24:25.182Z,11.70
2022-10-13T17:26:52.444Z,13.27
2022-10-13T17:29:19.746Z,13.73
2022-10-13T17:31:47.482Z,13.03
2022-10-13T17:34:14.832Z,12.37
2022-10-13T17:36:42.092Z,11.60
2022-10-13T17:39:11.310Z,13.23
2022-10-13T17:41:40.159Z,12.67
2022-10-13T17:44:07.453Z,13.87
2022-10-13T17:46:37.926Z,14.20
2022-10-13T17:49:07.191Z,15.00
2022-10-13T17:51:34.900Z,12.57
2022-10-13T17:54:02.224Z,14.80
2022-10-13T17:56:29.963Z,15.10
2022-10-13T17:59:00.243Z,14.50
2022-10-13T18:01:31.553Z,14.80
2022-10-13T18:04:01.941Z,14.27
2022-10-13T18:06:38.054Z,13.07
2022-10-13T18:09:08.345Z,13.90
2022-10-13T18:11:36.902Z,14.23
2022-10-13T18:14:06.922Z,15.63
2022-10-13T18:16:35.269Z,12.93
2022-10-13T18:19:03.742Z,13.17
2022-10-13T18:21:31.042Z,13.00
2022-10-13T18:24:00.829Z,13.70
2022-10-13T18:26:32.238Z,12.90
2022-10-13T18:28:59.796Z,13.37
2022-10-13T18:31:31.401Z,11.50
2022-10-13T18:34:02.363Z,11.90
2022-10-13T18:36:32.416Z,10.83
2022-10-13T18:39:04.709Z,11.10
2022-10-13T18:41:33.672Z,11.53
2022-10-13T18:44:01.046Z,10.43
2022-10-13T18:46:29.705Z,9.13
2022-10-13T18:48:58.286Z,11.10
2022-10-13T18:51:26.208Z,12.63
2022-10-13T18:53:53.503Z,10.70
2022-10-13T18:56:23.822Z,9.43
2022-10-13T18:58:58.450Z,9.63
2022-10-13T19:01:30.394Z,11.23
2022-10-13T19:03:58.574Z,9.73
2022-10-13T19:06:30.376Z,9.70
2022-10-13T19:09:03.593Z,9.97
2022-10-13T19:11:32.680Z,8.30
2022-10-13T19:14:01.558Z,8.40
2022-10-13T19:16:32.499Z,10.07
2022-10-13T19:18:59.804Z,8.60
2022-10-13T19:21:27.277Z,8.30
2022-10-13T19:23:58.081Z,9.37
2022-10-13T19:26:29.153Z,11.37
2022-10-13T19:28:59.367Z,9.67
2022-10-13T19:31:31.778Z,11.37
2022-10-13T19:34:00.163Z,11.40
2022-10-13T19:36:30.802Z,11.17
2022-10-13T19:38:59.721Z,10.97
2022-10-13T19:41:31.017Z,11.03
2022-10-13T19:43:58.461Z,12.07
2022-10-13T19:46:25.796Z,12.97
2022-10-13T19:48:54.615Z,12.33
2022-10-13T19:51:22.018Z,13.40
2022-10-13T19:53:49.259Z,12.53
2022-10-13T19:56:23.186Z,14.13
2022-10-13T19:58:52.608Z,12.03
2022-10-13T20:01:20.991Z,11.40
2022-10-13T20:03:48.742Z,12.70
2022-10-13T20:06:18.994Z,12.80
2022-10-13T20:08:46.924Z,14.10
2022-10-13T20:11:22.389Z,13.00
2022-10-13T20:13:52.330Z,13.17
2022-10-13T20:16:23.698Z,14.13
2022-10-13T20:18:53.340Z,13.40
2022-10-13T20:21:22.949Z,13.40
2022-10-13T20:23:51.817Z,13.60
2022-10-13T20:26:20.131Z,13.47
2022-10-13T20:28:50.105Z,13.33
2022-10-13T20:31:19.818Z,13.43
2022-10-13T20:33:49.526Z,13.63
2022-10-13T20:36:18.719Z,14.00
2022-10-13T20:38:49.189Z,14.07
2022-10-13T20:41:19.727Z,14.73
2022-10-13T20:43:48.912Z,14.00
2022-10-13T20:46:19.358Z,14.10
2022-10-13T20:49:09.934Z,14.53
2022-10-13T20:51:36.095Z,14.10
2022-10-13T20:54:05.293Z,13.93
2022-10-13T20:56:33.675Z,16.43
2022-10-13T20:59:03.579Z,15.97
2022-10-13T21:01:30.922Z,15.93
2022-10-13T21:03:58.477Z,16.33
2022-10-13T21:06:26.839Z,16.20
2022-10-13T21:08:54.602Z,17.17
2022-10-13T21:11:24.894Z,15.70
2022-10-13T21:13:53.179Z,17.53
2022-10-13T21:16:23.341Z,18.23
2022-10-13T21:18:51.998Z,18.17
2022-10-13T21:21:22.707Z,18.10
2022-10-13T21:23:51.460Z,17.20
2022-10-13T21:26:21.916Z,18.20
2022-10-13T21:28:52.076Z,18.07
2022-10-13T21:31:22.427Z,18.80
2022-10-13T21:33:50.654Z,18.27
2022-10-13T21:36:20.752Z,17.20
2022-10-13T21:38:51.859Z,20.77
2022-10-13T21:41:19.181Z,20.13
2022-10-13T21:43:46.723Z,18.23
2022-10-13T21:46:18.263Z,20.33
2022-10-13T21:48:47.380Z,19.33
2022-10-13T21:51:17.717Z,19.33
2022-10-13T21:53:49.944Z,20.23
2022-10-13T21:56:18.094Z,16.97
2022-10-13T21:58:45.706Z,18.70
2022-10-13T22:01:13.441Z,21.23
2022-10-13T22:03:42.769Z,17.73
2022-10-13T22:06:18.264Z,17.70
2022-10-13T22:08:48.363Z,21.17
2022-10-13T22:11:17.159Z,20.60
2022-10-13T22:13:44.923Z,18.87
2022-10-13T22:16:15.538Z,19.27
2022-10-13T22:18:45.070Z,20.37
2022-10-13T22:21:16.036Z,18.90
2022-10-13T22:23:44.990Z,20.20
2022-10-13T22:26:13.992Z,20.77
2022-10-13T22:28:42.665Z,18.73
2022-10-13T22:31:13.090Z,20.47
2022-10-13T22:33:43.700Z,19.83
2022-10-13T22:36:15.111Z,18.37
2022-10-13T22:38:43.358Z,21.13
2022-10-13T22:41:13.104Z,19.83
2022-10-13T22:43:42.998Z,20.07
2022-10-13T22:46:11.088Z,21.53
2022-10-13T22:48:40.912Z,21.40
2022-10-13T22:51:12.243Z,20.83
2022-10-13T22:53:39.930Z,21.20
2022-10-13T22:56:09.125Z,19.00
2022-10-13T22:58:36.789Z,22.40
2022-10-13T23:01:08.685Z,20.30
2022-10-13T23:03:36.163Z,20.23
2022-10-13T23:06:04.108Z,22.00
2022-10-13T23:08:33.380Z,22.33
2022-10-13T23:11:00.866Z,22.47
2022-10-13T23:13:28.170Z,21.77
2022-10-13T23:16:02.896Z,21.90
2022-10-13T23:18:30.307Z,24.60
2022-10-13T23:20:57.572Z,23.60
2022-10-13T23:23:24.974Z,24.10
2022-10-13T23:25:53.626Z,22.43
2022-10-13T23:28:21.157Z,24.50
2022-10-13T23:30:48.472Z,22.00
2022-10-13T23:33:15.734Z,23.83
2022-10-13T23:35:43.010Z,22.37
2022-10-13T23:38:10.257Z,24.07
2022-10-13T23:40:37.515Z,24.53
2022-10-13T23:43:06.075Z,23.07
2022-10-13T23:45:33.350Z,22.83
2022-10-13T23:48:00.565Z,20.07
2022-10-13T23:50:27.801Z,24.47
2022-10-13T23:52:56.547Z,24.53
2022-10-13T23:55:23.861Z,25.50
2022-10-13T23:57:51.240Z,23.67
